sensor_id;sensor_type;location;lat;lon;timestamp;P1;durP1;ratioP1;P2;durP2;ratioP2
5987;SDS011;3021;51.000;6.980;2022-07-06T00:00:53;14.73;;;3.72;;
5987;SDS011;3021;51.000;6.980;2022-07-06T00:03:18;4.53;;;2.35;;
5987;SDS011;3021;51.000;6.980;2022-07-06T00:05:43;4.80;;;2.58;;
5987;SDS011;3021;51.000;6.980;2022-07-06T00:08:09;4.63;;;2.42;;
5987;SDS011;3021;51.000;6.980;2022-07-06T00:10:34;7.65;;;2.72;;
5987;SDS011;3021;51.000;6.980;2022-07-06T00:13:00;7.00;;;2.80;;
5987;SDS011;3021;51.000;6.980;2022-07-06T00:15:25;5.80;;;2.42;;
5987;SDS011;3021;51.000;6.980;2022-07-06T00:17:50;5.22;;;2.30;;
5987;SDS011;3021;51.000;6.980;2022-07-06T00:20:16;4.07;;;2.08;;
5987;SDS011;3021;51.000;6.980;2022-07-06T00:22:41;3.15;;;1.90;;
5987;SDS011;3021;51.000;6.980;2022-07-06T00:25:07;4.70;;;2.47;;
5987;SDS011;3021;51.000;6.980;2022-07-06T00:27:33;4.65;;;2.25;;
5987;SDS011;3021;51.000;6.980;2022-07-06T00:29:58;3.33;;;2.03;;
5987;SDS011;3021;51.000;6.980;2022-07-06T00:32:23;3.85;;;2.33;;
5987;SDS011;3021;51.000;6.980;2022-07-06T00:34:50;2.80;;;2.00;;
5987;SDS011;3021;51.000;6.980;2022-07-06T00:37:15;4.63;;;2.47;;
5987;SDS011;3021;51.000;6.980;2022-07-06T00:39:41;4.80;;;2.20;;
5987;SDS011;3021;51.000;6.980;2022-07-06T00:42:06;5.07;;;2.53;;
5987;SDS011;3021;51.000;6.980;2022-07-06T00:44:31;4.10;;;2.05;;
5987;SDS011;3021;51.000;6.980;2022-07-06T00:46:58;3.67;;;2.20;;
5987;SDS011;3021;51.000;6.980;2022-07-06T00:49:24;6.55;;;2.42;;
5987;SDS011;3021;51.000;6.980;2022-07-06T00:52:08;3.70;;;2.20;;
5987;SDS011;3021;51.000;6.980;2022-07-06T00:54:33;3.35;;;2.15;;
5987;SDS011;3021;51.000;6.980;2022-07-06T00:57:00;4.90;;;2.35;;
5987;SDS011;3021;51.000;6.980;2022-07-06T00:59:25;4.40;;;2.20;;
5987;SDS011;3021;51.000;6.980;2022-07-06T01:01:52;6.05;;;1.88;;
5987;SDS011;3021;51.000;6.980;2022-07-06T01:04:17;6.28;;;2.22;;
5987;SDS011;3021;51.000;6.980;2022-07-06T01:06:44;6.93;;;2.38;;
5987;SDS011;3021;51.000;6.980;2022-07-06T01:09:10;3.53;;;2.20;;
5987;SDS011;3021;51.000;6.980;2022-07-06T01:11:36;4.90;;;2.40;;
5987;SDS011;3021;51.000;6.980;2022-07-06T01:14:02;4.63;;;1.95;;
5987;SDS011;3021;51.000;6.980;2022-07-06T01:16:27;7.15;;;2.40;;
5987;SDS011;3021;51.000;6.980;2022-07-06T01:18:53;6.72;;;2.25;;
5987;SDS011;3021;51.000;6.980;2022-07-06T01:21:18;6.55;;;2.25;;
5987;SDS011;3021;51.000;6.980;2022-07-06T01:23:44;6.38;;;2.10;;
5987;SDS011;3021;51.000;6.980;2022-07-06T01:26:12;3.22;;;2.03;;
5987;SDS011;3021;51.000;6.980;2022-07-06T01:28:39;7.18;;;2.85;;
5987;SDS011;3021;51.000;6.980;2022-07-06T01:31:05;3.75;;;1.90;;
5987;SDS011;3021;51.000;6.980;2022-07-06T01:33:39;6.03;;;2.55;;
5987;SDS011;3021;51.000;6.980;2022-07-06T01:36:04;2.67;;;1.98;;
5987;SDS011;3021;51.000;6.980;2022-07-06T01:38:30;4.22;;;2.40;;
5987;SDS011;3021;51.000;6.980;2022-07-06T01:40:55;3.75;;;2.30;;
5987;SDS011;3021;51.000;6.980;2022-07-06T01:43:20;4.57;;;2.55;;
5987;SDS011;3021;51.000;6.980;2022-07-06T01:45:46;3.90;;;2.13;;
5987;SDS011;3021;51.000;6.980;2022-07-06T01:48:11;6.70;;;2.67;;
5987;SDS011;3021;51.000;6.980;2022-07-06T01:50:36;5.25;;;2.17;;
5987;SDS011;3021;51.000;6.980;2022-07-06T01:53:02;2.85;;;2.35;;
5987;SDS011;3021;51.000;6.980;2022-07-06T01:55:27;5.20;;;2.35;;
5987;SDS011;3021;51.000;6.980;2022-07-06T01:57:53;3.88;;;2.20;;
5987;SDS011;3021;51.000;6.980;2022-07-06T02:00:18;3.28;;;2.63;;
5987;SDS011;3021;51.000;6.980;2022-07-06T02:02:43;3.22;;;2.13;;
5987;SDS011;3021;51.000;6.980;2022-07-06T02:05:08;4.25;;;2.58;;
5987;SDS011;3021;51.000;6.980;2022-07-06T02:07:34;5.97;;;2.97;;
5987;SDS011;3021;51.000;6.980;2022-07-06T02:09:59;7.45;;;2.45;;
5987;SDS011;3021;51.000;6.980;2022-07-06T02:12:25;3.97;;;2.50;;
5987;SDS011;3021;51.000;6.980;2022-07-06T02:14:50;7.28;;;2.70;;
5987;SDS011;3021;51.000;6.980;2022-07-06T02:17:15;5.50;;;2.95;;
5987;SDS011;3021;51.000;6.980;2022-07-06T02:19:41;8.43;;;2.88;;
5987;SDS011;3021;51.000;6.980;2022-07-06T02:22:06;5.85;;;3.08;;
5987;SDS011;3021;51.000;6.980;2022-07-06T02:24:31;10.07;;;3.33;;
5987;SDS011;3021;51.000;6.980;2022-07-06T02:26:57;4.68;;;2.92;;
5987;SDS011;3021;51.000;6.980;2022-07-06T02:29:22;8.07;;;2.90;;
5987;SDS011;3021;51.000;6.980;2022-07-06T02:31:47;5.18;;;2.80;;
5987;SDS011;3021;51.000;6.980;2022-07-06T02:34:13;5.40;;;2.88;;
5987;SDS011;3021;51.000;6.980;2022-07-06T02:36:38;4.90;;;2.63;;
5987;SDS011;3021;51.000;6.980;2022-07-06T02:39:04;5.65;;;3.17;;
5987;SDS011;3021;51.000;6.980;2022-07-06T02:41:29;4.35;;;3.05;;
5987;SDS011;3021;51.000;6.980;2022-07-06T02:43:54;8.70;;;3.78;;
5987;SDS011;3021;51.000;6.980;2022-07-06T02:46:20;5.95;;;3.65;;
5987;SDS011;3021;51.000;6.980;2022-07-06T02:48:45;5.28;;;3.72;;
5987;SDS011;3021;51.000;6.980;2022-07-06T02:51:10;9.15;;;3.67;;
5987;SDS011;3021;51.000;6.980;2022-07-06T02:53:36;8.30;;;3.53;;
5987;SDS011;3021;51.000;6.980;2022-07-06T02:56:01;8.77;;;4.00;;
5987;SDS011;3021;51.000;6.980;2022-07-06T02:58:26;8.38;;;3.90;;
5987;SDS011;3021;51.000;6.980;2022-07-06T03:00:52;5.50;;;4.03;;
5987;SDS011;3021;51.000;6.980;2022-07-06T03:03:17;9.02;;;4.00;;
5987;SDS011;3021;51.000;6.980;2022-07-06T03:05:42;6.57;;;3.53;;
5987;SDS011;3021;51.000;6.980;2022-07-06T03:08:08;5.90;;;4.07;;
5987;SDS011;3021;51.000;6.980;2022-07-06T03:10:33;7.97;;;3.50;;
5987;SDS011;3021;51.000;6.980;2022-07-06T03:12:58;6.60;;;3.60;;
5987;SDS011;3021;51.000;6.980;2022-07-06T03:15:24;5.03;;;3.47;;
5987;SDS011;3021;51.000;6.980;2022-07-06T03:17:49;4.93;;;3.22;;
5987;SDS011;3021;51.000;6.980;2022-07-06T03:20:14;9.20;;;3.38;;
5987;SDS011;3021;51.000;6.980;2022-07-06T03:22:40;6.95;;;3.08;;
5987;SDS011;3021;51.000;6.980;2022-07-06T03:25:05;9.63;;;3.65;;
5987;SDS011;3021;51.000;6.980;2022-07-06T03:27:31;7.53;;;3.45;;
5987;SDS011;3021;51.000;6.980;2022-07-06T03:29:57;11.85;;;3.38;;
5987;SDS011;3021;51.000;6.980;2022-07-06T03:32:22;5.85;;;3.40;;
5987;SDS011;3021;51.000;6.980;2022-07-06T03:34:48;9.65;;;3.63;;
5987;SDS011;3021;51.000;6.980;2022-07-06T03:37:13;5.60;;;3.53;;
5987;SDS011;3021;51.000;6.980;2022-07-06T03:39:39;5.72;;;3.53;;
5987;SDS011;3021;51.000;6.980;2022-07-06T03:42:04;8.07;;;3.50;;
5987;SDS011;3021;51.000;6.980;2022-07-06T03:44:29;9.55;;;3.83;;
5987;SDS011;3021;51.000;6.980;2022-07-06T03:46:55;8.23;;;3.33;;
5987;SDS011;3021;51.000;6.980;2022-07-06T03:49:21;8.70;;;3.42;;
5987;SDS011;3021;51.000;6.980;2022-07-06T03:51:46;5.75;;;3.25;;
5987;SDS011;3021;51.000;6.980;2022-07-06T03:54:12;5.75;;;3.30;;
5987;SDS011;3021;51.000;6.980;2022-07-06T03:56:37;5.93;;;3.00;;
5987;SDS011;3021;51.000;6.980;2022-07-06T03:59:03;6.70;;;3.38;;
5987;SDS011;3021;51.000;6.980;2022-07-06T04:01:29;9.32;;;3.55;;
5987;SDS011;3021;51.000;6.980;2022-07-06T04:03:55;7.18;;;4.25;;
5987;SDS011;3021;51.000;6.980;2022-07-06T04:06:20;6.65;;;3.95;;
5987;SDS011;3021;51.000;6.980;2022-07-06T04:08:46;5.40;;;3.85;;
5987;SDS011;3021;51.000;6.980;2022-07-06T04:11:11;7.35;;;4.03;;
5987;SDS011;3021;51.000;6.980;2022-07-06T04:13:37;7.85;;;4.55;;
5987;SDS011;3021;51.000;6.980;2022-07-06T04:16:04;9.63;;;4.30;;
5987;SDS011;3021;51.000;6.980;2022-07-06T04:18:30;4.95;;;4.32;;
5987;SDS011;3021;51.000;6.980;2022-07-06T04:20:56;8.25;;;4.25;;
5987;SDS011;3021;51.000;6.980;2022-07-06T04:23:24;8.10;;;4.22;;
5987;SDS011;3021;51.000;6.980;2022-07-06T04:25:50;14.55;;;4.30;;
5987;SDS011;3021;51.000;6.980;2022-07-06T04:28:15;6.25;;;4.25;;
5987;SDS011;3021;51.000;6.980;2022-07-06T04:30:41;9.18;;;4.43;;
5987;SDS011;3021;51.000;6.980;2022-07-06T04:33:06;6.65;;;4.63;;
5987;SDS011;3021;51.000;6.980;2022-07-06T04:35:32;9.85;;;4.97;;
5987;SDS011;3021;51.000;6.980;2022-07-06T04:37:57;5.13;;;4.63;;
5987;SDS011;3021;51.000;6.980;2022-07-06T04:40:22;9.13;;;4.85;;
5987;SDS011;3021;51.000;6.980;2022-07-06T04:42:48;9.93;;;4.15;;
5987;SDS011;3021;51.000;6.980;2022-07-06T04:45:13;8.98;;;4.55;;
5987;SDS011;3021;51.000;6.980;2022-07-06T04:47:39;12.65;;;5.05;;
5987;SDS011;3021;51.000;6.980;2022-07-06T04:50:04;7.50;;;4.30;;
5987;SDS011;3021;51.000;6.980;2022-07-06T04:52:30;10.55;;;4.40;;
5987;SDS011;3021;51.000;6.980;2022-07-06T04:54:55;12.43;;;4.70;;
5987;SDS011;3021;51.000;6.980;2022-07-06T04:57:21;6.70;;;4.00;;
5987;SDS011;3021;51.000;6.980;2022-07-06T04:59:46;8.82;;;4.38;;
5987;SDS011;3021;51.000;6.980;2022-07-06T05:02:12;9.52;;;4.47;;
5987;SDS011;3021;51.000;6.980;2022-07-06T05:04:37;6.35;;;4.10;;
5987;SDS011;3021;51.000;6.980;2022-07-06T05:07:03;13.15;;;4.78;;
5987;SDS011;3021;51.000;6.980;2022-07-06T05:09:28;10.27;;;4.38;;
5987;SDS011;3021;51.000;6.980;2022-07-06T05:11:54;16.30;;;4.55;;
5987;SDS011;3021;51.000;6.980;2022-07-06T05:14:19;8.15;;;4.60;;
5987;SDS011;3021;51.000;6.980;2022-07-06T05:16:44;7.15;;;4.43;;
5987;SDS011;3021;51.000;6.980;2022-07-06T05:19:10;9.05;;;4.35;;
5987;SDS011;3021;51.000;6.980;2022-07-06T05:21:35;9.95;;;4.13;;
5987;SDS011;3021;51.000;6.980;2022-07-06T05:24:01;6.72;;;3.30;;
5987;SDS011;3021;51.000;6.980;2022-07-06T05:26:26;8.07;;;3.58;;
5987;SDS011;3021;51.000;6.980;2022-07-06T05:28:52;4.72;;;2.97;;
5987;SDS011;3021;51.000;6.980;2022-07-06T05:31:17;6.88;;;3.70;;
5987;SDS011;3021;51.000;6.980;2022-07-06T05:33:42;9.23;;;3.80;;
5987;SDS011;3021;51.000;6.980;2022-07-06T05:36:08;11.05;;;3.55;;
5987;SDS011;3021;51.000;6.980;2022-07-06T05:38:33;5.18;;;3.17;;
5987;SDS011;3021;51.000;6.980;2022-07-06T05:40:59;7.25;;;2.95;;
5987;SDS011;3021;51.000;6.980;2022-07-06T05:43:24;5.20;;;3.10;;
5987;SDS011;3021;51.000;6.980;2022-07-06T05:45:50;6.63;;;3.40;;
5987;SDS011;3021;51.000;6.980;2022-07-06T05:48:15;7.13;;;3.90;;
5987;SDS011;3021;51.000;6.980;2022-07-06T05:50:59;7.60;;;3.70;;
5987;SDS011;3021;51.000;6.980;2022-07-06T05:53:25;8.38;;;3.88;;
5987;SDS011;3021;51.000;6.980;2022-07-06T05:55:50;10.27;;;3.45;;
5987;SDS011;3021;51.000;6.980;2022-07-06T05:58:15;9.70;;;3.13;;
5987;SDS011;3021;51.000;6.980;2022-07-06T06:00:41;6.97;;;3.20;;
5987;SDS011;3021;51.000;6.980;2022-07-06T06:03:06;5.75;;;3.10;;
5987;SDS011;3021;51.000;6.980;2022-07-06T06:05:32;7.45;;;3.10;;
5987;SDS011;3021;51.000;6.980;2022-07-06T06:07:57;5.78;;;2.88;;
5987;SDS011;3021;51.000;6.980;2022-07-06T06:10:23;5.35;;;3.05;;
5987;SDS011;3021;51.000;6.980;2022-07-06T06:12:49;7.00;;;2.58;;
5987;SDS011;3021;51.000;6.980;2022-07-06T06:15:14;4.97;;;3.17;;
5987;SDS011;3021;51.000;6.980;2022-07-06T06:17:40;6.80;;;3.30;;
5987;SDS011;3021;51.000;6.980;2022-07-06T06:20:06;7.50;;;2.70;;
5987;SDS011;3021;51.000;6.980;2022-07-06T06:25:14;6.65;;;3.00;;
5987;SDS011;3021;51.000;6.980;2022-07-06T06:27:41;6.47;;;2.72;;
5987;SDS011;3021;51.000;6.980;2022-07-06T06:30:06;4.15;;;2.90;;
5987;SDS011;3021;51.000;6.980;2022-07-06T06:32:32;4.97;;;2.65;;
5987;SDS011;3021;51.000;6.980;2022-07-06T06:34:58;6.63;;;2.97;;
5987;SDS011;3021;51.000;6.980;2022-07-06T06:37:23;5.72;;;3.20;;
5987;SDS011;3021;51.000;6.980;2022-07-06T06:39:48;7.85;;;3.10;;
5987;SDS011;3021;51.000;6.980;2022-07-06T06:42:14;6.65;;;2.63;;
5987;SDS011;3021;51.000;6.980;2022-07-06T06:44:39;6.53;;;2.30;;
5987;SDS011;3021;51.000;6.980;2022-07-06T06:47:04;4.28;;;2.40;;
5987;SDS011;3021;51.000;6.980;2022-07-06T06:49:30;4.97;;;1.85;;
5987;SDS011;3021;51.000;6.980;2022-07-06T06:51:55;2.58;;;1.60;;
5987;SDS011;3021;51.000;6.980;2022-07-06T06:54:20;7.28;;;2.28;;
5987;SDS011;3021;51.000;6.980;2022-07-06T06:56:46;6.03;;;1.90;;
5987;SDS011;3021;51.000;6.980;2022-07-06T06:59:11;5.45;;;1.90;;
5987;SDS011;3021;51.000;6.980;2022-07-06T07:01:36;2.95;;;1.60;;
5987;SDS011;3021;51.000;6.980;2022-07-06T07:04:02;4.47;;;1.80;;
5987;SDS011;3021;51.000;6.980;2022-07-06T07:06:27;7.38;;;2.13;;
5987;SDS011;3021;51.000;6.980;2022-07-06T07:08:52;5.38;;;1.95;;
5987;SDS011;3021;51.000;6.980;2022-07-06T07:11:19;6.55;;;1.67;;
5987;SDS011;3021;51.000;6.980;2022-07-06T07:13:44;5.75;;;1.83;;
5987;SDS011;3021;51.000;6.980;2022-07-06T07:16:10;3.10;;;1.38;;
5987;SDS011;3021;51.000;6.980;2022-07-06T07:18:35;6.30;;;1.52;;
5987;SDS011;3021;51.000;6.980;2022-07-06T07:21:00;1.70;;;1.15;;
5987;SDS011;3021;51.000;6.980;2022-07-06T07:23:26;3.40;;;1.40;;
5987;SDS011;3021;51.000;6.980;2022-07-06T07:25:51;4.28;;;2.08;;
5987;SDS011;3021;51.000;6.980;2022-07-06T07:28:17;4.97;;;1.65;;
5987;SDS011;3021;51.000;6.980;2022-07-06T07:30:42;5.07;;;2.03;;
5987;SDS011;3021;51.000;6.980;2022-07-06T07:33:07;3.08;;;1.70;;
5987;SDS011;3021;51.000;6.980;2022-07-06T07:35:33;5.72;;;2.17;;
5987;SDS011;3021;51.000;6.980;2022-07-06T07:37:58;3.92;;;1.42;;
5987;SDS011;3021;51.000;6.980;2022-07-06T07:40:24;4.57;;;1.63;;
5987;SDS011;3021;51.000;6.980;2022-07-06T07:42:49;7.20;;;2.08;;
5987;SDS011;3021;51.000;6.980;2022-07-06T07:45:15;4.22;;;1.88;;
5987;SDS011;3021;51.000;6.980;2022-07-06T07:47:40;4.40;;;1.98;;
5987;SDS011;3021;51.000;6.980;2022-07-06T07:50:06;3.92;;;1.77;;
5987;SDS011;3021;51.000;6.980;2022-07-06T07:52:32;4.93;;;1.70;;
5987;SDS011;3021;51.000;6.980;2022-07-06T07:54:58;3.88;;;1.58;;
5987;SDS011;3021;51.000;6.980;2022-07-06T07:57:23;6.68;;;2.05;;
5987;SDS011;3021;51.000;6.980;2022-07-06T07:59:49;3.47;;;1.50;;
5987;SDS011;3021;51.000;6.980;2022-07-06T08:02:14;6.00;;;1.70;;
5987;SDS011;3021;51.000;6.980;2022-07-06T08:04:39;4.82;;;2.30;;
5987;SDS011;3021;51.000;6.980;2022-07-06T08:07:05;5.40;;;2.25;;
5987;SDS011;3021;51.000;6.980;2022-07-06T08:09:31;3.60;;;1.60;;
5987;SDS011;3021;51.000;6.980;2022-07-06T08:11:56;3.35;;;1.38;;
5987;SDS011;3021;51.000;6.980;2022-07-06T08:14:21;3.45;;;1.50;;
5987;SDS011;3021;51.000;6.980;2022-07-06T08:16:47;5.20;;;1.77;;
5987;SDS011;3021;51.000;6.980;2022-07-06T08:19:12;3.00;;;1.40;;
5987;SDS011;3021;51.000;6.980;2022-07-06T08:21:41;4.80;;;1.10;;
5987;SDS011;3021;51.000;6.980;2022-07-06T08:24:06;3.28;;;1.13;;
5987;SDS011;3021;51.000;6.980;2022-07-06T08:26:32;5.93;;;1.52;;
5987;SDS011;3021;51.000;6.980;2022-07-06T08:28:58;3.42;;;1.15;;
5987;SDS011;3021;51.000;6.980;2022-07-06T08:31:24;4.25;;;1.40;;
5987;SDS011;3021;51.000;6.980;2022-07-06T08:33:49;5.63;;;1.27;;
5987;SDS011;3021;51.000;6.980;2022-07-06T08:36:18;2.03;;;1.20;;
5987;SDS011;3021;51.000;6.980;2022-07-06T08:38:43;4.57;;;1.42;;
5987;SDS011;3021;51.000;6.980;2022-07-06T08:41:08;4.43;;;1.27;;
5987;SDS011;3021;51.000;6.980;2022-07-06T08:43:35;3.83;;;1.40;;
5987;SDS011;3021;51.000;6.980;2022-07-06T08:46:01;3.42;;;1.33;;
5987;SDS011;3021;51.000;6.980;2022-07-06T08:48:27;6.30;;;1.83;;
5987;SDS011;3021;51.000;6.980;2022-07-06T08:50:59;3.42;;;1.08;;
5987;SDS011;3021;51.000;6.980;2022-07-06T08:53:24;5.07;;;1.10;;
5987;SDS011;3021;51.000;6.980;2022-07-06T08:55:50;4.50;;;0.95;;
5987;SDS011;3021;51.000;6.980;2022-07-06T08:58:15;5.40;;;1.10;;
5987;SDS011;3021;51.000;6.980;2022-07-06T09:00:41;2.08;;;0.70;;
5987;SDS011;3021;51.000;6.980;2022-07-06T09:03:07;2.75;;;1.00;;
5987;SDS011;3021;51.000;6.980;2022-07-06T09:05:35;2.33;;;0.60;;
5987;SDS011;3021;51.000;6.980;2022-07-06T09:08:01;3.00;;;1.05;;
5987;SDS011;3021;51.000;6.980;2022-07-06T09:10:27;3.42;;;0.63;;
5987;SDS011;3021;51.000;6.980;2022-07-06T09:12:52;3.20;;;0.68;;
5987;SDS011;3021;51.000;6.980;2022-07-06T09:15:18;7.07;;;1.45;;
5987;SDS011;3021;51.000;6.980;2022-07-06T09:17:43;6.30;;;1.65;;
5987;SDS011;3021;51.000;6.980;2022-07-06T09:20:10;7.68;;;1.88;;
5987;SDS011;3021;51.000;6.980;2022-07-06T09:22:36;1.85;;;1.10;;
5987;SDS011;3021;51.000;6.980;2022-07-06T09:25:10;3.63;;;1.45;;
5987;SDS011;3021;51.000;6.980;2022-07-06T09:27:38;4.57;;;1.60;;
5987;SDS011;3021;51.000;6.980;2022-07-06T09:30:06;4.82;;;1.30;;
5987;SDS011;3021;51.000;6.980;2022-07-06T09:32:37;3.17;;;1.10;;
5987;SDS011;3021;51.000;6.980;2022-07-06T09:35:06;2.38;;;1.08;;
5987;SDS011;3021;51.000;6.980;2022-07-06T09:37:33;5.75;;;1.25;;
5987;SDS011;3021;51.000;6.980;2022-07-06T09:39:58;3.42;;;1.05;;
5987;SDS011;3021;51.000;6.980;2022-07-06T09:42:24;2.58;;;1.00;;
5987;SDS011;3021;51.000;6.980;2022-07-06T09:44:51;4.75;;;1.00;;
5987;SDS011;3021;51.000;6.980;2022-07-06T09:47:17;1.75;;;0.90;;
5987;SDS011;3021;51.000;6.980;2022-07-06T09:49:43;1.13;;;0.70;;
5987;SDS011;3021;51.000;6.980;2022-07-06T09:52:10;4.35;;;1.10;;
5987;SDS011;3021;51.000;6.980;2022-07-06T09:54:36;2.33;;;0.98;;
5987;SDS011;3021;51.000;6.980;2022-07-06T09:57:06;4.00;;;1.10;;
5987;SDS011;3021;51.000;6.980;2022-07-06T09:59:32;2.97;;;0.60;;
5987;SDS011;3021;51.000;6.980;2022-07-06T10:02:03;2.05;;;0.80;;
5987;SDS011;3021;51.000;6.980;2022-07-06T10:04:30;1.75;;;0.55;;
5987;SDS011;3021;51.000;6.980;2022-07-06T10:06:55;2.63;;;0.85;;
5987;SDS011;3021;51.000;6.980;2022-07-06T10:09:23;3.25;;;0.93;;
5987;SDS011;3021;51.000;6.980;2022-07-06T10:11:51;2.92;;;0.88;;
5987;SDS011;3021;51.000;6.980;2022-07-06T10:14:21;1.40;;;0.60;;
5987;SDS011;3021;51.000;6.980;2022-07-06T10:16:52;6.05;;;1.20;;
5987;SDS011;3021;51.000;6.980;2022-07-06T10:19:20;1.98;;;0.80;;
5987;SDS011;3021;51.000;6.980;2022-07-06T10:21:46;2.47;;;0.88;;
5987;SDS011;3021;51.000;6.980;2022-07-06T10:24:12;1.98;;;0.82;;
5987;SDS011;3021;51.000;6.980;2022-07-06T10:26:38;5.38;;;1.33;;
5987;SDS011;3021;51.000;6.980;2022-07-06T10:29:05;3.30;;;0.93;;
5987;SDS011;3021;51.000;6.980;2022-07-06T10:31:31;1.80;;;1.00;;
5987;SDS011;3021;51.000;6.980;2022-07-06T10:34:00;1.58;;;0.90;;
5987;SDS011;3021;51.000;6.980;2022-07-06T10:36:28;2.83;;;0.82;;
5987;SDS011;3021;51.000;6.980;2022-07-06T10:38:54;3.35;;;0.93;;
5987;SDS011;3021;51.000;6.980;2022-07-06T10:41:31;4.38;;;1.00;;
5987;SDS011;3021;51.000;6.980;2022-07-06T10:43:58;3.75;;;1.00;;
5987;SDS011;3021;51.000;6.980;2022-07-06T10:46:40;3.70;;;1.23;;
5987;SDS011;3021;51.000;6.980;2022-07-06T10:49:14;2.65;;;1.15;;
5987;SDS011;3021;51.000;6.980;2022-07-06T10:51:41;3.45;;;1.08;;
5987;SDS011;3021;51.000;6.980;2022-07-06T10:54:07;3.83;;;1.10;;
5987;SDS011;3021;51.000;6.980;2022-07-06T10:59:14;2.22;;;0.90;;
5987;SDS011;3021;51.000;6.980;2022-07-06T11:04:41;2.85;;;1.05;;
5987;SDS011;3021;51.000;6.980;2022-07-06T11:07:09;1.98;;;0.60;;
5987;SDS011;3021;51.000;6.980;2022-07-06T11:09:36;3.60;;;0.90;;
5987;SDS011;3021;51.000;6.980;2022-07-06T11:12:18;6.78;;;1.20;;
5987;SDS011;3021;51.000;6.980;2022-07-06T11:14:45;2.65;;;0.80;;
5987;SDS011;3021;51.000;6.980;2022-07-06T11:17:13;1.33;;;0.98;;
5987;SDS011;3021;51.000;6.980;2022-07-06T11:19:47;2.50;;;1.55;;
5987;SDS011;3021;51.000;6.980;2022-07-06T11:22:14;2.42;;;1.17;;
5987;SDS011;3021;51.000;6.980;2022-07-06T11:24:40;3.80;;;1.35;;
5987;SDS011;3021;51.000;6.980;2022-07-06T11:27:06;1.25;;;1.10;;
5987;SDS011;3021;51.000;6.980;2022-07-06T11:29:32;4.85;;;1.58;;
5987;SDS011;3021;51.000;6.980;2022-07-06T11:32:04;3.63;;;1.17;;
5987;SDS011;3021;51.000;6.980;2022-07-06T11:34:34;1.40;;;1.05;;
5987;SDS011;3021;51.000;6.980;2022-07-06T11:37:05;3.97;;;1.00;;
5987;SDS011;3021;51.000;6.980;2022-07-06T11:39:33;3.53;;;1.20;;
5987;SDS011;3021;51.000;6.980;2022-07-06T11:42:00;3.28;;;0.80;;
5987;SDS011;3021;51.000;6.980;2022-07-06T11:44:28;1.20;;;0.80;;
5987;SDS011;3021;51.000;6.980;2022-07-06T11:46:54;4.20;;;0.75;;
5987;SDS011;3021;51.000;6.980;2022-07-06T11:49:21;5.55;;;0.93;;
5987;SDS011;3021;51.000;6.980;2022-07-06T11:51:47;5.45;;;1.13;;
5987;SDS011;3021;51.000;6.980;2022-07-06T11:54:13;2.92;;;1.17;;
5987;SDS011;3021;51.000;6.980;2022-07-06T11:59:19;2.58;;;0.90;;
5987;SDS011;3021;51.000;6.980;2022-07-06T12:01:49;2.03;;;0.90;;
5987;SDS011;3021;51.000;6.980;2022-07-06T12:04:23;2.47;;;0.93;;
5987;SDS011;3021;51.000;6.980;2022-07-06T12:06:49;2.55;;;0.57;;
5987;SDS011;3021;51.000;6.980;2022-07-06T12:09:15;1.83;;;0.88;;
5987;SDS011;3021;51.000;6.980;2022-07-06T12:11:40;2.95;;;0.85;;
5987;SDS011;3021;51.000;6.980;2022-07-06T12:14:17;4.97;;;0.88;;
5987;SDS011;3021;51.000;6.980;2022-07-06T12:16:45;5.05;;;1.17;;
5987;SDS011;3021;51.000;6.980;2022-07-06T12:19:12;4.05;;;0.63;;
5987;SDS011;3021;51.000;6.980;2022-07-06T12:21:48;2.13;;;1.17;;
5987;SDS011;3021;51.000;6.980;2022-07-06T12:24:24;4.63;;;1.13;;
5987;SDS011;3021;51.000;6.980;2022-07-06T12:26:52;2.70;;;1.20;;
5987;SDS011;3021;51.000;6.980;2022-07-06T12:29:18;1.65;;;1.08;;
5987;SDS011;3021;51.000;6.980;2022-07-06T12:34:17;7.15;;;1.20;;
5987;SDS011;3021;51.000;6.980;2022-07-06T12:36:48;3.78;;;1.00;;
5987;SDS011;3021;51.000;6.980;2022-07-06T12:39:15;1.85;;;0.98;;
5987;SDS011;3021;51.000;6.980;2022-07-06T12:41:49;5.82;;;1.35;;
5987;SDS011;3021;51.000;6.980;2022-07-06T12:44:29;2.50;;;0.98;;
5987;SDS011;3021;51.000;6.980;2022-07-06T12:47:02;2.53;;;0.75;;
5987;SDS011;3021;51.000;6.980;2022-07-06T12:49:29;3.22;;;0.95;;
5987;SDS011;3021;51.000;6.980;2022-07-06T12:54:37;6.20;;;1.00;;
5987;SDS011;3021;51.000;6.980;2022-07-06T12:59:57;2.05;;;1.15;;
5987;SDS011;3021;51.000;6.980;2022-07-06T13:02:27;5.18;;;1.40;;
5987;SDS011;3021;51.000;6.980;2022-07-06T13:07:30;1.15;;;0.80;;
5987;SDS011;3021;51.000;6.980;2022-07-06T13:09:57;1.25;;;0.75;;
5987;SDS011;3021;51.000;6.980;2022-07-06T13:12:23;4.32;;;1.20;;
5987;SDS011;3021;51.000;6.980;2022-07-06T13:14:49;4.55;;;0.95;;
5987;SDS011;3021;51.000;6.980;2022-07-06T13:17:14;3.05;;;1.20;;
5987;SDS011;3021;51.000;6.980;2022-07-06T13:19:40;4.05;;;1.40;;
5987;SDS011;3021;51.000;6.980;2022-07-06T13:22:06;3.35;;;0.95;;
5987;SDS011;3021;51.000;6.980;2022-07-06T13:24:31;4.57;;;1.05;;
5987;SDS011;3021;51.000;6.980;2022-07-06T13:26:57;2.10;;;1.00;;
5987;SDS011;3021;51.000;6.980;2022-07-06T13:29:22;2.65;;;0.80;;
5987;SDS011;3021;51.000;6.980;2022-07-06T13:31:48;4.13;;;0.95;;
5987;SDS011;3021;51.000;6.980;2022-07-06T13:34:14;1.70;;;0.82;;
5987;SDS011;3021;51.000;6.980;2022-07-06T13:36:39;3.08;;;1.08;;
5987;SDS011;3021;51.000;6.980;2022-07-06T13:39:05;3.55;;;0.90;;
5987;SDS011;3021;51.000;6.980;2022-07-06T13:41:32;4.22;;;1.00;;
5987;SDS011;3021;51.000;6.980;2022-07-06T13:43:58;4.22;;;0.90;;
5987;SDS011;3021;51.000;6.980;2022-07-06T13:46:25;2.40;;;0.90;;
5987;SDS011;3021;51.000;6.980;2022-07-06T13:48:52;3.53;;;0.77;;
5987;SDS011;3021;51.000;6.980;2022-07-06T13:51:17;4.05;;;1.08;;
5987;SDS011;3021;51.000;6.980;2022-07-06T13:53:43;1.75;;;0.73;;
5987;SDS011;3021;51.000;6.980;2022-07-06T13:56:08;1.92;;;0.77;;
5987;SDS011;3021;51.000;6.980;2022-07-06T13:58:34;2.42;;;1.23;;
5987;SDS011;3021;51.000;6.980;2022-07-06T14:01:00;2.65;;;0.88;;
5987;SDS011;3021;51.000;6.980;2022-07-06T14:03:25;3.25;;;1.30;;
5987;SDS011;3021;51.000;6.980;2022-07-06T14:05:54;1.52;;;0.85;;
5987;SDS011;3021;51.000;6.980;2022-07-06T14:08:21;2.72;;;1.10;;
5987;SDS011;3021;51.000;6.980;2022-07-06T14:10:46;1.85;;;0.90;;
5987;SDS011;3021;51.000;6.980;2022-07-06T14:13:11;2.08;;;0.93;;
5987;SDS011;3021;51.000;6.980;2022-07-06T14:15:37;4.50;;;1.00;;
5987;SDS011;3021;51.000;6.980;2022-07-06T14:18:02;3.47;;;1.10;;
5987;SDS011;3021;51.000;6.980;2022-07-06T14:20:27;2.65;;;0.80;;
5987;SDS011;3021;51.000;6.980;2022-07-06T14:22:53;3.90;;;0.98;;
5987;SDS011;3021;51.000;6.980;2022-07-06T14:25:18;4.40;;;1.15;;
5987;SDS011;3021;51.000;6.980;2022-07-06T14:27:44;4.13;;;1.17;;
5987;SDS011;3021;51.000;6.980;2022-07-06T14:30:10;2.65;;;1.17;;
5987;SDS011;3021;51.000;6.980;2022-07-06T14:32:35;2.97;;;0.70;;
5987;SDS011;3021;51.000;6.980;2022-07-06T14:35:01;1.60;;;0.80;;
5987;SDS011;3021;51.000;6.980;2022-07-06T14:37:26;3.58;;;1.00;;
5987;SDS011;3021;51.000;6.980;2022-07-06T14:39:51;3.15;;;1.10;;
5987;SDS011;3021;51.000;6.980;2022-07-06T14:42:17;3.58;;;0.75;;
5987;SDS011;3021;51.000;6.980;2022-07-06T14:44:42;3.60;;;1.00;;
5987;SDS011;3021;51.000;6.980;2022-07-06T14:47:08;4.72;;;1.05;;
5987;SDS011;3021;51.000;6.980;2022-07-06T14:49:33;3.67;;;1.10;;
5987;SDS011;3021;51.000;6.980;2022-07-06T14:51:58;3.60;;;0.70;;
5987;SDS011;3021;51.000;6.980;2022-07-06T14:54:24;3.85;;;0.93;;
5987;SDS011;3021;51.000;6.980;2022-07-06T14:56:50;1.05;;;0.63;;
5987;SDS011;3021;51.000;6.980;2022-07-06T14:59:16;4.60;;;1.13;;
5987;SDS011;3021;51.000;6.980;2022-07-06T15:01:41;3.47;;;1.23;;
5987;SDS011;3021;51.000;6.980;2022-07-06T15:04:07;5.00;;;0.90;;
5987;SDS011;3021;51.000;6.980;2022-07-06T15:06:33;5.55;;;1.08;;
5987;SDS011;3021;51.000;6.980;2022-07-06T15:08:58;2.50;;;0.95;;
5987;SDS011;3021;51.000;6.980;2022-07-06T15:11:26;1.35;;;0.70;;
5987;SDS011;3021;51.000;6.980;2022-07-06T15:13:51;4.57;;;1.00;;
5987;SDS011;3021;51.000;6.980;2022-07-06T15:16:16;2.75;;;1.00;;
5987;SDS011;3021;51.000;6.980;2022-07-06T15:18:42;1.55;;;0.90;;
5987;SDS011;3021;51.000;6.980;2022-07-06T15:21:07;2.70;;;0.82;;
5987;SDS011;3021;51.000;6.980;2022-07-06T15:23:34;3.33;;;0.90;;
5987;SDS011;3021;51.000;6.980;2022-07-06T15:26:01;2.75;;;1.05;;
5987;SDS011;3021;51.000;6.980;2022-07-06T15:28:27;2.88;;;1.15;;
5987;SDS011;3021;51.000;6.980;2022-07-06T15:30:54;5.85;;;1.00;;